sensor_id;sensor_type;location;lat;lon;timestamp;P1;durP1;ratioP1;P2;durP2;ratioP2
31724;SDS011;18306;40.960;14.836;2022-08-21T00:01:22;4.32;;;2.03;;
31724;SDS011;18306;40.960;14.836;2022-08-21T00:03:52;6.00;;;2.45;;
31724;SDS011;18306;40.960;14.836;2022-08-21T00:06:19;5.97;;;2.78;;
31724;SDS011;18306;40.960;14.836;2022-08-21T00:08:51;3.17;;;2.05;;
31724;SDS011;18306;40.960;14.836;2022-08-21T00:11:18;5.93;;;2.30;;
31724;SDS011;18306;40.960;14.836;2022-08-21T00:13:45;4.88;;;2.05;;
31724;SDS011;18306;40.960;14.836;2022-08-21T00:16:12;3.72;;;2.15;;
31724;SDS011;18306;40.960;14.836;2022-08-21T00:18:41;2.53;;;1.98;;
31724;SDS011;18306;40.960;14.836;2022-08-21T00:21:08;3.33;;;1.90;;
31724;SDS011;18306;40.960;14.836;2022-08-21T00:23:37;2.60;;;2.17;;
31724;SDS011;18306;40.960;14.836;2022-08-21T00:26:05;5.05;;;2.67;;
31724;SDS011;18306;40.960;14.836;2022-08-21T00:28:33;3.53;;;1.67;;
31724;SDS011;18306;40.960;14.836;2022-08-21T00:31:00;8.98;;;2.47;;
31724;SDS011;18306;40.960;14.836;2022-08-21T00:33:30;1.95;;;1.42;;
31724;SDS011;18306;40.960;14.836;2022-08-21T00:35:57;2.22;;;1.85;;
31724;SDS011;18306;40.960;14.836;2022-08-21T00:38:25;8.45;;;2.50;;
31724;SDS011;18306;40.960;14.836;2022-08-21T00:40:53;2.72;;;2.25;;
31724;SDS011;18306;40.960;14.836;2022-08-21T00:43:26;2.55;;;2.05;;
31724;SDS011;18306;40.960;14.836;2022-08-21T00:46:00;1.75;;;1.60;;
31724;SDS011;18306;40.960;14.836;2022-08-21T00:48:28;2.22;;;1.58;;
31724;SDS011;18306;40.960;14.836;2022-08-21T00:53:38;4.40;;;1.80;;
31724;SDS011;18306;40.960;14.836;2022-08-21T00:56:08;2.00;;;1.80;;
31724;SDS011;18306;40.960;14.836;2022-08-21T00:58:37;4.55;;;2.17;;
31724;SDS011;18306;40.960;14.836;2022-08-21T01:01:07;14.80;;;2.33;;
31724;SDS011;18306;40.960;14.836;2022-08-21T01:03:35;5.05;;;2.35;;
31724;SDS011;18306;40.960;14.836;2022-08-21T01:06:04;8.27;;;1.42;;
31724;SDS011;18306;40.960;14.836;2022-08-21T01:08:32;2.17;;;1.80;;
31724;SDS011;18306;40.960;14.836;2022-08-21T01:11:00;1.83;;;1.42;;
31724;SDS011;18306;40.960;14.836;2022-08-21T01:13:29;1.48;;;1.38;;
31724;SDS011;18306;40.960;14.836;2022-08-21T01:15:58;1.92;;;1.33;;
31724;SDS011;18306;40.960;14.836;2022-08-21T01:18:29;8.13;;;2.30;;
31724;SDS011;18306;40.960;14.836;2022-08-21T01:21:06;1.50;;;1.35;;
31724;SDS011;18306;40.960;14.836;2022-08-21T01:23:36;4.07;;;1.25;;
31724;SDS011;18306;40.960;14.836;2022-08-21T01:26:05;1.65;;;1.35;;
31724;SDS011;18306;40.960;14.836;2022-08-21T01:28:38;2.00;;;1.90;;
31724;SDS011;18306;40.960;14.836;2022-08-21T01:31:15;2.70;;;1.70;;
31724;SDS011;18306;40.960;14.836;2022-08-21T01:33:45;6.07;;;1.83;;
31724;SDS011;18306;40.960;14.836;2022-08-21T01:36:13;1.90;;;1.77;;
31724;SDS011;18306;40.960;14.836;2022-08-21T01:38:40;9.45;;;1.55;;
31724;SDS011;18306;40.960;14.836;2022-08-21T01:41:07;1.55;;;1.30;;
31724;SDS011;18306;40.960;14.836;2022-08-21T01:43:34;5.82;;;1.65;;
31724;SDS011;18306;40.960;14.836;2022-08-21T01:46:02;4.68;;;2.15;;
31724;SDS011;18306;40.960;14.836;2022-08-21T01:48:30;7.47;;;2.42;;
31724;SDS011;18306;40.960;14.836;2022-08-21T01:50:57;5.10;;;1.33;;
31724;SDS011;18306;40.960;14.836;2022-08-21T01:53:25;1.58;;;1.30;;
31724;SDS011;18306;40.960;14.836;2022-08-21T01:55:52;5.25;;;1.40;;
31724;SDS011;18306;40.960;14.836;2022-08-21T01:58:19;2.83;;;1.98;;
31724;SDS011;18306;40.960;14.836;2022-08-21T02:00:47;7.80;;;1.85;;
31724;SDS011;18306;40.960;14.836;2022-08-21T02:03:19;2.15;;;1.80;;
31724;SDS011;18306;40.960;14.836;2022-08-21T02:05:47;3.03;;;1.58;;
31724;SDS011;18306;40.960;14.836;2022-08-21T02:08:14;2.60;;;2.05;;
31724;SDS011;18306;40.960;14.836;2022-08-21T02:10:41;9.75;;;2.40;;
31724;SDS011;18306;40.960;14.836;2022-08-21T02:13:08;1.98;;;1.60;;
31724;SDS011;18306;40.960;14.836;2022-08-21T02:15:36;3.00;;;1.85;;
31724;SDS011;18306;40.960;14.836;2022-08-21T02:18:04;2.30;;;1.70;;
31724;SDS011;18306;40.960;14.836;2022-08-21T02:20:37;2.83;;;1.77;;
31724;SDS011;18306;40.960;14.836;2022-08-21T02:23:13;2.35;;;1.63;;
31724;SDS011;18306;40.960;14.836;2022-08-21T02:25:42;1.50;;;1.38;;
31724;SDS011;18306;40.960;14.836;2022-08-21T02:28:10;2.95;;;1.77;;
31724;SDS011;18306;40.960;14.836;2022-08-21T02:30:40;9.23;;;2.13;;
31724;SDS011;18306;40.960;14.836;2022-08-21T02:33:10;2.45;;;1.52;;
31724;SDS011;18306;40.960;14.836;2022-08-21T02:35:38;2.10;;;1.65;;
31724;SDS011;18306;40.960;14.836;2022-08-21T02:38:11;3.95;;;1.73;;
31724;SDS011;18306;40.960;14.836;2022-08-21T02:40:49;8.68;;;1.50;;
31724;SDS011;18306;40.960;14.836;2022-08-21T02:43:18;3.72;;;1.70;;
31724;SDS011;18306;40.960;14.836;2022-08-21T02:45:49;12.00;;;2.47;;
31724;SDS011;18306;40.960;14.836;2022-08-21T02:48:19;2.97;;;1.85;;
31724;SDS011;18306;40.960;14.836;2022-08-21T02:50:51;5.22;;;2.50;;
31724;SDS011;18306;40.960;14.836;2022-08-21T02:53:20;2.90;;;2.45;;
31724;SDS011;18306;40.960;14.836;2022-08-21T02:55:48;4.85;;;2.72;;
31724;SDS011;18306;40.960;14.836;2022-08-21T02:58:18;2.65;;;1.83;;
31724;SDS011;18306;40.960;14.836;2022-08-21T03:00:48;7.13;;;1.98;;
31724;SDS011;18306;40.960;14.836;2022-08-21T03:03:16;7.32;;;1.95;;
31724;SDS011;18306;40.960;14.836;2022-08-21T03:05:43;4.25;;;2.40;;
31724;SDS011;18306;40.960;14.836;2022-08-21T03:08:11;1.90;;;1.77;;
31724;SDS011;18306;40.960;14.836;2022-08-21T03:10:41;5.75;;;1.90;;
31724;SDS011;18306;40.960;14.836;2022-08-21T03:13:10;2.55;;;1.83;;
31724;SDS011;18306;40.960;14.836;2022-08-21T03:15:39;1.35;;;1.25;;
31724;SDS011;18306;40.960;14.836;2022-08-21T03:18:06;2.72;;;1.77;;
31724;SDS011;18306;40.960;14.836;2022-08-21T03:20:35;2.80;;;2.00;;
31724;SDS011;18306;40.960;14.836;2022-08-21T03:23:03;3.30;;;1.77;;
31724;SDS011;18306;40.960;14.836;2022-08-21T03:25:32;3.17;;;1.65;;
31724;SDS011;18306;40.960;14.836;2022-08-21T03:28:01;2.60;;;1.88;;
31724;SDS011;18306;40.960;14.836;2022-08-21T03:30:30;2.25;;;1.65;;
31724;SDS011;18306;40.960;14.836;2022-08-21T03:32:58;3.20;;;1.48;;
31724;SDS011;18306;40.960;14.836;2022-08-21T03:35:27;3.35;;;1.63;;
31724;SDS011;18306;40.960;14.836;2022-08-21T03:37:54;10.07;;;1.20;;
31724;SDS011;18306;40.960;14.836;2022-08-21T03:40:22;2.20;;;1.65;;
31724;SDS011;18306;40.960;14.836;2022-08-21T03:42:52;3.33;;;2.42;;
31724;SDS011;18306;40.960;14.836;2022-08-21T03:45:20;1.52;;;1.23;;
31724;SDS011;18306;40.960;14.836;2022-08-21T03:47:52;2.58;;;1.70;;
31724;SDS011;18306;40.960;14.836;2022-08-21T03:53:38;2.97;;;2.08;;
31724;SDS011;18306;40.960;14.836;2022-08-21T03:56:18;1.33;;;1.23;;
31724;SDS011;18306;40.960;14.836;2022-08-21T03:58:54;2.25;;;2.13;;
31724;SDS011;18306;40.960;14.836;2022-08-21T04:01:26;2.70;;;1.65;;
31724;SDS011;18306;40.960;14.836;2022-08-21T04:04:04;2.97;;;1.58;;
31724;SDS011;18306;40.960;14.836;2022-08-21T04:06:34;2.80;;;1.60;;
31724;SDS011;18306;40.960;14.836;2022-08-21T04:09:02;4.50;;;1.73;;
31724;SDS011;18306;40.960;14.836;2022-08-21T04:11:29;2.05;;;1.42;;
31724;SDS011;18306;40.960;14.836;2022-08-21T04:13:56;2.10;;;1.88;;
31724;SDS011;18306;40.960;14.836;2022-08-21T04:16:24;1.08;;;1.00;;
31724;SDS011;18306;40.960;14.836;2022-08-21T04:18:51;1.33;;;1.23;;
31724;SDS011;18306;40.960;14.836;2022-08-21T04:21:18;1.80;;;1.70;;
31724;SDS011;18306;40.960;14.836;2022-08-21T04:23:45;2.35;;;1.42;;
31724;SDS011;18306;40.960;14.836;2022-08-21T04:26:12;1.35;;;1.15;;
31724;SDS011;18306;40.960;14.836;2022-08-21T04:28:40;3.08;;;1.95;;
31724;SDS011;18306;40.960;14.836;2022-08-21T04:31:08;1.98;;;1.65;;
31724;SDS011;18306;40.960;14.836;2022-08-21T04:33:35;2.22;;;1.77;;
31724;SDS011;18306;40.960;14.836;2022-08-21T04:36:03;2.08;;;1.58;;
31724;SDS011;18306;40.960;14.836;2022-08-21T04:38:31;1.80;;;1.58;;
31724;SDS011;18306;40.960;14.836;2022-08-21T04:40:59;2.75;;;1.55;;
31724;SDS011;18306;40.960;14.836;2022-08-21T04:43:26;2.55;;;1.88;;
31724;SDS011;18306;40.960;14.836;2022-08-21T04:45:54;1.50;;;1.40;;
31724;SDS011;18306;40.960;14.836;2022-08-21T04:48:22;4.15;;;1.77;;
31724;SDS011;18306;40.960;14.836;2022-08-21T04:50:54;1.50;;;1.27;;
31724;SDS011;18306;40.960;14.836;2022-08-21T04:53:31;3.85;;;2.47;;
31724;SDS011;18306;40.960;14.836;2022-08-21T04:56:06;3.22;;;1.52;;
31724;SDS011;18306;40.960;14.836;2022-08-21T04:58:38;1.75;;;1.58;;
31724;SDS011;18306;40.960;14.836;2022-08-21T05:01:07;2.97;;;1.98;;
31724;SDS011;18306;40.960;14.836;2022-08-21T05:03:38;2.20;;;1.35;;
31724;SDS011;18306;40.960;14.836;2022-08-21T05:06:08;1.98;;;1.77;;
31724;SDS011;18306;40.960;14.836;2022-08-21T05:08:38;2.67;;;1.98;;
31724;SDS011;18306;40.960;14.836;2022-08-21T05:11:07;2.33;;;1.65;;
31724;SDS011;18306;40.960;14.836;2022-08-21T05:13:35;1.85;;;1.17;;
31724;SDS011;18306;40.960;14.836;2022-08-21T05:16:02;5.15;;;1.50;;
31724;SDS011;18306;40.960;14.836;2022-08-21T05:18:30;3.78;;;1.80;;
31724;SDS011;18306;40.960;14.836;2022-08-21T05:20:58;9.00;;;2.22;;
31724;SDS011;18306;40.960;14.836;2022-08-21T05:23:26;1.45;;;1.00;;
31724;SDS011;18306;40.960;14.836;2022-08-21T05:25:53;2.47;;;1.65;;
31724;SDS011;18306;40.960;14.836;2022-08-21T05:28:22;2.08;;;1.73;;
31724;SDS011;18306;40.960;14.836;2022-08-21T05:30:49;3.47;;;1.65;;
31724;SDS011;18306;40.960;14.836;2022-08-21T05:33:18;2.28;;;1.83;;
31724;SDS011;18306;40.960;14.836;2022-08-21T05:35:52;2.13;;;1.73;;
31724;SDS011;18306;40.960;14.836;2022-08-21T05:38:23;2.65;;;2.03;;
31724;SDS011;18306;40.960;14.836;2022-08-21T05:40:53;3.00;;;1.92;;
31724;SDS011;18306;40.960;14.836;2022-08-21T05:43:21;3.35;;;2.38;;
31724;SDS011;18306;40.960;14.836;2022-08-21T05:45:49;3.75;;;1.98;;
31724;SDS011;18306;40.960;14.836;2022-08-21T05:48:20;2.50;;;1.77;;
31724;SDS011;18306;40.960;14.836;2022-08-21T05:50:49;3.47;;;1.60;;
31724;SDS011;18306;40.960;14.836;2022-08-21T05:53:19;2.25;;;1.73;;
31724;SDS011;18306;40.960;14.836;2022-08-21T05:55:47;1.52;;;1.25;;
31724;SDS011;18306;40.960;14.836;2022-08-21T05:58:16;8.18;;;1.52;;
31724;SDS011;18306;40.960;14.836;2022-08-21T06:00:46;1.83;;;1.15;;
31724;SDS011;18306;40.960;14.836;2022-08-21T06:03:23;4.57;;;1.58;;
31724;SDS011;18306;40.960;14.836;2022-08-21T06:05:51;2.85;;;1.67;;
31724;SDS011;18306;40.960;14.836;2022-08-21T06:08:19;2.72;;;2.13;;
31724;SDS011;18306;40.960;14.836;2022-08-21T06:10:47;6.45;;;2.17;;
31724;SDS011;18306;40.960;14.836;2022-08-21T06:13:18;1.75;;;1.48;;
31724;SDS011;18306;40.960;14.836;2022-08-21T06:15:46;3.83;;;2.00;;
31724;SDS011;18306;40.960;14.836;2022-08-21T06:18:14;2.67;;;1.90;;
31724;SDS011;18306;40.960;14.836;2022-08-21T06:20:42;2.33;;;1.90;;
31724;SDS011;18306;40.960;14.836;2022-08-21T06:23:09;4.20;;;2.17;;
31724;SDS011;18306;40.960;14.836;2022-08-21T06:25:37;2.40;;;1.55;;
31724;SDS011;18306;40.960;14.836;2022-08-21T06:28:05;5.78;;;1.83;;
31724;SDS011;18306;40.960;14.836;2022-08-21T06:30:34;5.05;;;1.60;;
31724;SDS011;18306;40.960;14.836;2022-08-21T06:33:02;2.17;;;1.40;;
31724;SDS011;18306;40.960;14.836;2022-08-21T06:35:30;1.50;;;1.30;;
31724;SDS011;18306;40.960;14.836;2022-08-21T06:37:58;1.92;;;1.38;;
31724;SDS011;18306;40.960;14.836;2022-08-21T06:40:26;1.85;;;1.33;;
31724;SDS011;18306;40.960;14.836;2022-08-21T06:42:54;1.60;;;1.50;;
31724;SDS011;18306;40.960;14.836;2022-08-21T06:45:21;2.28;;;1.48;;
31724;SDS011;18306;40.960;14.836;2022-08-21T06:47:48;1.92;;;1.38;;
31724;SDS011;18306;40.960;14.836;2022-08-21T06:50:16;3.70;;;1.20;;
31724;SDS011;18306;40.960;14.836;2022-08-21T06:52:43;4.13;;;1.45;;
31724;SDS011;18306;40.960;14.836;2022-08-21T06:55:10;5.13;;;1.27;;
31724;SDS011;18306;40.960;14.836;2022-08-21T06:57:38;1.20;;;1.10;;
31724;SDS011;18306;40.960;14.836;2022-08-21T07:00:07;3.80;;;1.73;;
31724;SDS011;18306;40.960;14.836;2022-08-21T07:02:36;1.95;;;1.15;;
31724;SDS011;18306;40.960;14.836;2022-08-21T07:05:03;4.10;;;2.08;;
31724;SDS011;18306;40.960;14.836;2022-08-21T07:07:31;4.82;;;1.63;;
31724;SDS011;18306;40.960;14.836;2022-08-21T07:09:58;2.10;;;0.98;;
31724;SDS011;18306;40.960;14.836;2022-08-21T07:12:25;1.10;;;1.00;;
31724;SDS011;18306;40.960;14.836;2022-08-21T07:14:53;5.78;;;1.10;;
31724;SDS011;18306;40.960;14.836;2022-08-21T07:17:20;1.75;;;1.30;;
31724;SDS011;18306;40.960;14.836;2022-08-21T07:19:48;1.15;;;0.85;;
31724;SDS011;18306;40.960;14.836;2022-08-21T07:22:18;1.00;;;0.88;;
31724;SDS011;18306;40.960;14.836;2022-08-21T07:24:46;1.45;;;1.17;;
31724;SDS011;18306;40.960;14.836;2022-08-21T07:27:14;1.17;;;1.00;;
31724;SDS011;18306;40.960;14.836;2022-08-21T07:29:41;1.63;;;1.00;;
31724;SDS011;18306;40.960;14.836;2022-08-21T07:32:09;2.17;;;1.13;;
31724;SDS011;18306;40.960;14.836;2022-08-21T07:34:36;1.38;;;0.80;;
31724;SDS011;18306;40.960;14.836;2022-08-21T07:37:03;1.02;;;1.02;;
31724;SDS011;18306;40.960;14.836;2022-08-21T07:39:30;1.45;;;1.00;;
31724;SDS011;18306;40.960;14.836;2022-08-21T07:41:58;1.92;;;1.10;;
31724;SDS011;18306;40.960;14.836;2022-08-21T07:44:25;0.77;;;0.77;;
31724;SDS011;18306;40.960;14.836;2022-08-21T07:46:52;5.25;;;0.90;;
31724;SDS011;18306;40.960;14.836;2022-08-21T07:49:20;1.05;;;0.80;;
31724;SDS011;18306;40.960;14.836;2022-08-21T07:51:47;2.78;;;1.13;;
31724;SDS011;18306;40.960;14.836;2022-08-21T07:54:14;2.10;;;1.23;;
31724;SDS011;18306;40.960;14.836;2022-08-21T07:56:41;1.42;;;1.20;;
31724;SDS011;18306;40.960;14.836;2022-08-21T07:59:10;1.00;;;1.00;;
31724;SDS011;18306;40.960;14.836;2022-08-21T08:01:38;2.05;;;0.98;;
31724;SDS011;18306;40.960;14.836;2022-08-21T08:04:08;1.75;;;1.25;;
31724;SDS011;18306;40.960;14.836;2022-08-21T08:06:35;4.32;;;1.50;;
31724;SDS011;18306;40.960;14.836;2022-08-21T08:09:03;0.80;;;0.80;;
31724;SDS011;18306;40.960;14.836;2022-08-21T08:11:30;1.42;;;0.70;;
31724;SDS011;18306;40.960;14.836;2022-08-21T08:13:57;1.33;;;1.20;;
31724;SDS011;18306;40.960;14.836;2022-08-21T08:16:25;1.75;;;1.10;;
31724;SDS011;18306;40.960;14.836;2022-08-21T08:18:53;1.52;;;1.30;;
31724;SDS011;18306;40.960;14.836;2022-08-21T08:21:22;1.15;;;0.88;;
31724;SDS011;18306;40.960;14.836;2022-08-21T08:23:49;3.13;;;0.98;;
31724;SDS011;18306;40.960;14.836;2022-08-21T08:26:16;0.88;;;0.77;;
31724;SDS011;18306;40.960;14.836;2022-08-21T08:28:43;1.23;;;0.88;;
31724;SDS011;18306;40.960;14.836;2022-08-21T08:31:14;1.33;;;0.93;;
31724;SDS011;18306;40.960;14.836;2022-08-21T08:33:41;1.63;;;0.95;;
31724;SDS011;18306;40.960;14.836;2022-08-21T08:36:13;1.20;;;0.70;;
31724;SDS011;18306;40.960;14.836;2022-08-21T08:38:42;4.37;;;0.80;;
31724;SDS011;18306;40.960;14.836;2022-08-21T08:41:16;0.70;;;0.70;;
31724;SDS011;18306;40.960;14.836;2022-08-21T08:43:55;0.68;;;0.68;;
31724;SDS011;18306;40.960;14.836;2022-08-21T08:46:44;3.13;;;1.30;;
31724;SDS011;18306;40.960;14.836;2022-08-21T08:49:20;1.42;;;1.00;;
31724;SDS011;18306;40.960;14.836;2022-08-21T08:51:55;2.50;;;1.00;;
31724;SDS011;18306;40.960;14.836;2022-08-21T08:54:34;0.98;;;0.52;;
31724;SDS011;18306;40.960;14.836;2022-08-21T08:57:14;3.85;;;1.05;;
31724;SDS011;18306;40.960;14.836;2022-08-21T08:59:48;4.47;;;1.27;;
31724;SDS011;18306;40.960;14.836;2022-08-21T09:02:19;1.48;;;0.77;;
31724;SDS011;18306;40.960;14.836;2022-08-21T09:04:50;2.25;;;1.02;;
31724;SDS011;18306;40.960;14.836;2022-08-21T09:10:12;2.28;;;0.95;;
31724;SDS011;18306;40.960;14.836;2022-08-21T09:12:56;0.68;;;0.55;;
31724;SDS011;18306;40.960;14.836;2022-08-21T09:18:26;1.42;;;0.90;;
31724;SDS011;18306;40.960;14.836;2022-08-21T09:21:29;0.82;;;0.82;;
31724;SDS011;18306;40.960;14.836;2022-08-21T09:24:18;2.08;;;0.77;;
31724;SDS011;18306;40.960;14.836;2022-08-21T09:26:57;1.55;;;0.70;;
31724;SDS011;18306;40.960;14.836;2022-08-21T09:32:17;2.75;;;0.68;;
31724;SDS011;18306;40.960;14.836;2022-08-21T09:34:57;3.13;;;0.98;;
31724;SDS011;18306;40.960;14.836;2022-08-21T09:37:27;0.47;;;0.47;;
31724;SDS011;18306;40.960;14.836;2022-08-21T09:39:58;0.63;;;0.50;;
31724;SDS011;18306;40.960;14.836;2022-08-21T09:42:27;0.63;;;0.63;;
31724;SDS011;18306;40.960;14.836;2022-08-21T09:45:10;0.40;;;0.40;;
31724;SDS011;18306;40.960;14.836;2022-08-21T09:47:41;0.52;;;0.40;;
31724;SDS011;18306;40.960;14.836;2022-08-21T09:50:14;3.33;;;0.57;;
31724;SDS011;18306;40.960;14.836;2022-08-21T09:52:51;1.07;;;0.67;;
31724;SDS011;18306;40.960;14.836;2022-08-21T09:55:23;0.60;;;0.60;;
31724;SDS011;18306;40.960;14.836;2022-08-21T09:58:17;0.43;;;0.43;;
31724;SDS011;18306;40.960;14.836;2022-08-21T10:00:45;0.68;;;0.68;;
31724;SDS011;18306;40.960;14.836;2022-08-21T10:03:23;1.52;;;0.80;;
31724;SDS011;18306;40.960;14.836;2022-08-21T10:08:24;0.82;;;0.80;;
31724;SDS011;18306;40.960;14.836;2022-08-21T10:10:55;12.20;;;1.25;;
31724;SDS011;18306;40.960;14.836;2022-08-21T10:13:31;0.50;;;0.50;;
31724;SDS011;18306;40.960;14.836;2022-08-21T10:21:35;0.45;;;0.38;;
31724;SDS011;18306;40.960;14.836;2022-08-21T10:24:16;0.80;;;0.52;;
31724;SDS011;18306;40.960;14.836;2022-08-21T10:32:27;0.50;;;0.50;;
31724;SDS011;18306;40.960;14.836;2022-08-21T10:35:13;0.55;;;0.52;;
31724;SDS011;18306;40.960;14.836;2022-08-21T10:38:13;0.30;;;0.30;;
31724;SDS011;18306;40.960;14.836;2022-08-21T10:40:55;1.08;;;0.70;;
31724;SDS011;18306;40.960;14.836;2022-08-21T10:48:39;4.03;;;0.35;;
31724;SDS011;18306;40.960;14.836;2022-08-21T10:51:21;6.78;;;1.10;;
31724;SDS011;18306;40.960;14.836;2022-08-21T10:56:39;0.75;;;0.75;;
31724;SDS011;18306;40.960;14.836;2022-08-21T11:02:27;0.47;;;0.47;;
31724;SDS011;18306;40.960;14.836;2022-08-21T11:05:14;2.95;;;0.70;;
31724;SDS011;18306;40.960;14.836;2022-08-21T11:08:08;0.25;;;0.25;;
31724;SDS011;18306;40.960;14.836;2022-08-21T11:10:55;1.65;;;0.68;;
31724;SDS011;18306;40.960;14.836;2022-08-21T11:13:40;0.88;;;0.75;;
31724;SDS011;18306;40.960;14.836;2022-08-21T11:22:05;0.80;;;0.52;;
31724;SDS011;18306;40.960;14.836;2022-08-21T11:25:00;1.67;;;0.50;;
31724;SDS011;18306;40.960;14.836;2022-08-21T11:27:38;0.50;;;0.40;;
31724;SDS011;18306;40.960;14.836;2022-08-21T11:30:14;0.35;;;0.35;;
31724;SDS011;18306;40.960;14.836;2022-08-21T11:32:54;6.43;;;0.47;;
31724;SDS011;18306;40.960;14.836;2022-08-21T11:35:41;0.40;;;0.40;;
31724;SDS011;18306;40.960;14.836;2022-08-21T11:49:15;1.08;;;0.70;;
31724;SDS011;18306;40.960;14.836;2022-08-21T11:52:16;0.95;;;0.43;;
31724;SDS011;18306;40.960;14.836;2022-08-21T11:55:21;2.15;;;0.75;;
31724;SDS011;18306;40.960;14.836;2022-08-21T11:58:22;0.80;;;0.57;;
31724;SDS011;18306;40.960;14.836;2022-08-21T12:01:20;0.50;;;0.43;;
31724;SDS011;18306;40.960;14.836;2022-08-21T12:03:59;1.98;;;0.38;;
31724;SDS011;18306;40.960;14.836;2022-08-21T12:06:40;0.52;;;0.52;;
31724;SDS011;18306;40.960;14.836;2022-08-21T12:09:10;0.43;;;0.43;;
31724;SDS011;18306;40.960;14.836;2022-08-21T12:12:06;0.40;;;0.32;;
31724;SDS011;18306;40.960;14.836;2022-08-21T12:15:13;0.40;;;0.40;;
31724;SDS011;18306;40.960;14.836;2022-08-21T12:18:03;1.73;;;0.68;;
31724;SDS011;18306;40.960;14.836;2022-08-21T12:20:41;0.90;;;0.40;;
31724;SDS011;18306;40.960;14.836;2022-08-21T12:28:28;0.30;;;0.30;;
31724;SDS011;18306;40.960;14.836;2022-08-21T12:30:57;2.15;;;0.52;;
31724;SDS011;18306;40.960;14.836;2022-08-21T12:33:30;0.70;;;0.47;;
31724;SDS011;18306;40.960;14.836;2022-08-21T12:36:13;2.38;;;0.70;;
31724;SDS011;18306;40.960;14.836;2022-08-21T12:38:52;1.60;;;0.77;;
31724;SDS011;18306;40.960;14.836;2022-08-21T12:41:40;3.92;;;0.50;;
31724;SDS011;18306;40.960;14.836;2022-08-21T12:44:15;0.47;;;0.47;;
31724;SDS011;18306;40.960;14.836;2022-08-21T12:49:41;0.35;;;0.35;;
31724;SDS011;18306;40.960;14.836;2022-08-21T12:52:23;0.82;;;0.60;;
31724;SDS011;18306;40.960;14.836;2022-08-21T12:54:54;1.92;;;0.82;;
31724;SDS011;18306;40.960;14.836;2022-08-21T12:57:30;0.85;;;0.63;;
31724;SDS011;18306;40.960;14.836;2022-08-21T13:00:03;0.38;;;0.38;;
31724;SDS011;18306;40.960;14.836;2022-08-21T13:02:57;0.47;;;0.47;;
31724;SDS011;18306;40.960;14.836;2022-08-21T13:05:36;0.50;;;0.50;;
31724;SDS011;18306;40.960;14.836;2022-08-21T13:08:05;0.50;;;0.40;;
31724;SDS011;18306;40.960;14.836;2022-08-21T13:10:37;0.65;;;0.43;;
31724;SDS011;18306;40.960;14.836;2022-08-21T13:13:20;1.85;;;0.60;;
31724;SDS011;18306;40.960;14.836;2022-08-21T13:15:57;1.13;;;0.60;;
31724;SDS011;18306;40.960;14.836;2022-08-21T13:18:32;0.17;;;0.17;;
31724;SDS011;18306;40.960;14.836;2022-08-21T13:21:12;2.13;;;0.32;;
31724;SDS011;18306;40.960;14.836;2022-08-21T13:23:41;0.30;;;0.30;;
31724;SDS011;18306;40.960;14.836;2022-08-21T13:26:17;2.70;;;0.55;;
31724;SDS011;18306;40.960;14.836;2022-08-21T13:28:46;0.38;;;0.38;;
31724;SDS011;18306;40.960;14.836;2022-08-21T13:31:19;0.95;;;0.88;;
31724;SDS011;18306;40.960;14.836;2022-08-21T13:33:51;2.42;;;1.40;;
31724;SDS011;18306;40.960;14.836;2022-08-21T13:36:21;4.20;;;3.05;;
31724;SDS011;18306;40.960;14.836;2022-08-21T13:38:53;3.78;;;1.90;;
31724;SDS011;18306;40.960;14.836;2022-08-21T13:41:26;0.88;;;0.68;;
31724;SDS011;18306;40.960;14.836;2022-08-21T13:43:58;1.17;;;0.85;;
31724;SDS011;18306;40.960;14.836;2022-08-21T13:46:35;0.55;;;0.47;;
31724;SDS011;18306;40.960;14.836;2022-08-21T13:49:03;2.97;;;1.50;;
31724;SDS011;18306;40.960;14.836;2022-08-21T13:51:33;2.20;;;1.10;;
31724;SDS011;18306;40.960;14.836;2022-08-21T13:54:13;1.10;;;1.00;;
31724;SDS011;18306;40.960;14.836;2022-08-21T13:56:57;2.53;;;1.33;;
31724;SDS011;18306;40.960;14.836;2022-08-21T13:59:26;3.05;;;1.13;;
31724;SDS011;18306;40.960;14.836;2022-08-21T14:02:13;0.98;;;0.95;;
31724;SDS011;18306;40.960;14.836;2022-08-21T14:04:50;5.00;;;1.92;;
31724;SDS011;18306;40.960;14.836;2022-08-21T14:07:26;1.60;;;1.40;;
31724;SDS011;18306;40.960;14.836;2022-08-21T14:10:12;2.00;;;1.48;;
31724;SDS011;18306;40.960;14.836;2022-08-21T14:12:57;9.18;;;1.58;;
31724;SDS011;18306;40.960;14.836;2022-08-21T14:15:29;2.60;;;1.65;;
31724;SDS011;18306;40.960;14.836;2022-08-21T14:18:10;3.92;;;1.80;;
31724;SDS011;18306;40.960;14.836;2022-08-21T14:20:44;4.00;;;1.60;;
31724;SDS011;18306;40.960;14.836;2022-08-21T14:23:12;2.75;;;1.05;;
31724;SDS011;18306;40.960;14.836;2022-08-21T14:25:52;1.83;;;1.15;;
31724;SDS011;18306;40.960;14.836;2022-08-21T14:28:26;1.92;;;1.10;;
31724;SDS011;18306;40.960;14.836;2022-08-21T14:30:56;2.30;;;1.38;;
31724;SDS011;18306;40.960;14.836;2022-08-21T14:35:55;2.90;;;1.20;;
31724;SDS011;18306;40.960;14.836;2022-08-21T14:38:23;2.92;;;1.38;;
31724;SDS011;18306;40.960;14.836;2022-08-21T14:40:54;1.90;;;1.15;;
31724;SDS011;18306;40.960;14.836;2022-08-21T14:43:25;2.38;;;1.00;;
31724;SDS011;18306;40.960;14.836;2022-08-21T14:46:02;4.05;;;1.55;;
31724;SDS011;18306;40.960;14.836;2022-08-21T14:48:29;1.77;;;1.00;;
31724;SDS011;18306;40.960;14.836;2022-08-21T14:50:57;1.42;;;0.65;;
31724;SDS011;18306;40.960;14.836;2022-08-21T14:53:25;2.08;;;0.95;;
31724;SDS011;18306;40.960;14.836;2022-08-21T14:55:55;1.02;;;0.93;;
31724;SDS011;18306;40.960;14.836;2022-08-21T14:58:37;2.33;;;0.93;;
31724;SDS011;18306;40.960;14.836;2022-08-21T15:01:16;1.17;;;0.77;;
31724;SDS011;18306;40.960;14.836;2022-08-21T15:06:48;2.42;;;1.05;;
31724;SDS011;18306;40.960;14.836;2022-08-21T15:09:16;1.42;;;1.33;;
31724;SDS011;18306;40.960;14.836;2022-08-21T15:11:44;2.78;;;1.20;;
31724;SDS011;18306;40.960;14.836;2022-08-21T15:14:14;1.30;;;1.20;;
31724;SDS011;18306;40.960;14.836;2022-08-21T15:16:47;1.27;;;0.85;;
31724;SDS011;18306;40.960;14.836;2022-08-21T15:19:16;0.80;;;0.73;;
31724;SDS011;18306;40.960;14.836;2022-08-21T15:21:50;2.08;;;1.20;;
31724;SDS011;18306;40.960;14.836;2022-08-21T15:24:18;1.92;;;1.17;;
31724;SDS011;18306;40.960;14.836;2022-08-21T15:26:47;10.10;;;1.70;;
31724;SDS011;18306;40.960;14.836;2022-08-21T15:29:15;1.23;;;0.82;;
31724;SDS011;18306;40.960;14.836;2022-08-21T15:34:21;2.38;;;1.00;;
31724;SDS011;18306;40.960;14.836;2022-08-21T15:36:49;1.00;;;0.63;;
31724;SDS011;18306;40.960;14.836;2022-08-21T15:39:16;0.52;;;0.52;;
31724;SDS011;18306;40.960;14.836;2022-08-21T15:41:44;1.65;;;0.63;;
31724;SDS011;18306;40.960;14.836;2022-08-21T15:44:12;0.40;;;0.40;;
31724;SDS011;18306;40.960;14.836;2022-08-21T15:46:40;6.72;;;0.82;;
31724;SDS011;18306;40.960;14.836;2022-08-21T15:49:08;0.70;;;0.63;;
31724;SDS011;18306;40.960;14.836;2022-08-21T15:51:40;2.20;;;1.13;;
31724;SDS011;18306;40.960;14.836;2022-08-21T15:54:09;1.42;;;0.98;;
31724;SDS011;18306;40.960;14.836;2022-08-21T15:56:48;7.47;;;0.80;;
31724;SDS011;18306;40.960;14.836;2022-08-21T15:59:20;1.67;;;0.88;;
31724;SDS011;18306;40.960;14.836;2022-08-21T16:01:51;1.35;;;0.82;;
31724;SDS011;18306;40.960;14.836;2022-08-21T16:04:23;0.77;;;0.75;;
31724;SDS011;18306;40.960;14.836;2022-08-21T16:06:52;5.78;;;0.57;;
31724;SDS011;18306;40.960;14.836;2022-08-21T16:09:20;1.17;;;0.50;;
31724;SDS011;18306;40.960;14.836;2022-08-21T16:11:48;4.40;;;0.85;;
31724;SDS011;18306;40.960;14.836;2022-08-21T16:14:15;6.22;;;0.85;;